createdAt,value
2019-02-06T00:01:51.953Z,-4.50
2019-02-06T00:06:55.556Z,-4.50
2019-02-06T00:11:59.097Z,-4.42
2019-02-06T00:17:02.711Z,-4.41
2019-02-06T00:22:07.443Z,-4.39
2019-02-06T00:27:10.862Z,-4.47
2019-02-06T00:32:14.685Z,-4.40
2019-02-06T00:37:18.205Z,-4.33
2019-02-06T00:42:21.619Z,-4.34
2019-02-06T00:47:25.092Z,-4.28
2019-02-06T00:52:28.532Z,-4.31
2019-02-06T00:57:32.149Z,-4.27
2019-02-06T01:02:35.656Z,-4.38
2019-02-06T01:07:39.068Z,-4.35
2019-02-06T01:12:42.704Z,-4.36
2019-02-06T01:17:46.161Z,-4.33
2019-02-06T01:22:49.718Z,-4.43
2019-02-06T01:27:53.099Z,-4.38
2019-02-06T01:32:57.253Z,-4.39
2019-02-06T01:38:00.637Z,-4.33
2019-02-06T01:43:04.321Z,-4.43
2019-02-06T01:48:07.761Z,-4.36
2019-02-06T01:53:11.346Z,-4.46
2019-02-06T01:58:14.758Z,-4.42
2019-02-06T02:03:18.295Z,-4.44
2019-02-06T02:08:21.808Z,-4.40
2019-02-06T02:13:25.401Z,-4.34
2019-02-06T02:18:28.833Z,-4.42
2019-02-06T02:23:32.427Z,-4.36
2019-02-06T02:28:35.993Z,-4.36
2019-02-06T02:33:39.434Z,-4.29
2019-02-06T02:38:43.115Z,-4.34
2019-02-06T02:43:46.575Z,-4.40
2019-02-06T02:48:50.118Z,-4.38
2019-02-06T02:53:53.569Z,-4.41
2019-02-06T02:58:57.110Z,-4.36
2019-02-06T03:04:04.964Z,-4.39
2019-02-06T03:09:11.911Z,-4.39
2019-02-06T03:14:15.388Z,-4.43
2019-02-06T03:19:18.768Z,-4.46
2019-02-06T03:24:22.282Z,-4.40
2019-02-06T03:29:25.822Z,-4.40
2019-02-06T03:34:29.382Z,-4.45
2019-02-06T03:39:32.765Z,-4.43
2019-02-06T03:44:36.248Z,-4.40
2019-02-06T03:49:42.684Z,-4.39
2019-02-06T03:54:43.257Z,-4.40
2019-02-06T03:59:46.696Z,-4.38
2019-02-06T04:04:50.200Z,-4.38
2019-02-06T04:09:53.740Z,-4.40
2019-02-06T04:14:57.474Z,-4.44
2019-02-06T04:20:01.342Z,-4.41
2019-02-06T04:25:05.233Z,-4.38
2019-02-06T04:30:09.769Z,-4.39
2019-02-06T04:35:13.242Z,-4.40
2019-02-06T04:40:17.911Z,-4.35
2019-02-06T04:45:21.380Z,-4.46
2019-02-06T04:50:26.667Z,-4.39
2019-02-06T04:55:30.449Z,-4.40
2019-02-06T05:00:33.840Z,-4.39
2019-02-06T05:05:37.346Z,-4.37
2019-02-06T05:10:40.834Z,-4.42
2019-02-06T05:15:44.356Z,-4.43
2019-02-06T05:20:47.773Z,-4.43
2019-02-06T05:25:51.206Z,-4.40
2019-02-06T05:30:54.651Z,-4.36
2019-02-06T05:35:58.178Z,-4.37
2019-02-06T05:41:01.568Z,-4.41
2019-02-06T05:46:04.968Z,-4.36
2019-02-06T05:51:08.549Z,-4.39
2019-02-06T05:56:11.968Z,-4.40
2019-02-06T06:01:15.370Z,-4.38
2019-02-06T06:06:18.857Z,-4.39
2019-02-06T06:11:22.269Z,-4.40
2019-02-06T06:16:25.672Z,-4.39
2019-02-06T06:21:29.058Z,-4.37
2019-02-06T06:26:32.582Z,-4.42
2019-02-06T06:31:36.079Z,-4.42
2019-02-06T06:36:39.457Z,-4.47
2019-02-06T06:41:42.925Z,-4.46
2019-02-06T06:46:46.319Z,-4.36
2019-02-06T06:51:49.740Z,-4.37
2019-02-06T06:56:53.201Z,-4.45
2019-02-06T07:01:56.605Z,-4.45
2019-02-06T07:06:59.980Z,-4.46
2019-02-06T07:12:03.482Z,-4.36
2019-02-06T07:17:06.988Z,-4.39
2019-02-06T07:22:10.392Z,-4.42
2019-02-06T07:27:13.944Z,-4.35
2019-02-06T07:32:17.355Z,-4.37
2019-02-06T07:37:20.877Z,-4.32
2019-02-06T07:42:24.312Z,-4.26
2019-02-06T07:47:27.784Z,-4.27
2019-02-06T07:52:31.241Z,-4.21
2019-02-06T07:57:34.629Z,-4.31
2019-02-06T08:02:38.041Z,-4.21
2019-02-06T08:07:41.544Z,-4.21
2019-02-06T08:12:44.932Z,-4.20
2019-02-06T08:17:48.488Z,-4.28
2019-02-06T08:22:51.896Z,-4.05
2019-02-06T08:27:55.531Z,-4.10
2019-02-06T08:32:58.986Z,-4.19
2019-02-06T08:38:02.465Z,-4.10
2019-02-06T08:43:05.964Z,-4.09
2019-02-06T08:48:09.506Z,-3.84
2019-02-06T08:53:13.459Z,-4.01
2019-02-06T08:58:16.936Z,-3.69
2019-02-06T09:03:20.354Z,-3.79
2019-02-06T09:08:23.741Z,-3.83
2019-02-06T09:13:27.575Z,-3.78
2019-02-06T09:18:30.959Z,-3.76
2019-02-06T09:23:34.447Z,-3.79
2019-02-06T09:28:37.966Z,-3.79
2019-02-06T09:33:41.455Z,-3.68
2019-02-06T09:38:45.072Z,-3.60
2019-02-06T09:43:48.447Z,-3.68
2019-02-06T09:48:51.880Z,-3.46
2019-02-06T09:53:55.292Z,-3.37
2019-02-06T09:58:58.910Z,-3.35
2019-02-06T10:04:02.427Z,-3.46
2019-02-06T10:09:08.214Z,-3.32
2019-02-06T10:14:11.695Z,-3.39
2019-02-06T10:19:15.231Z,-3.38
2019-02-06T10:24:19.183Z,-3.43
2019-02-06T10:29:22.985Z,-3.52
2019-02-06T10:34:26.984Z,-3.34
2019-02-06T10:39:34.567Z,-3.31
2019-02-06T10:44:33.881Z,-3.15
2019-02-06T10:49:37.514Z,-3.16
2019-02-06T10:54:41.058Z,-2.96
2019-02-06T10:59:44.494Z,-3.30
2019-02-06T11:04:48.219Z,-3.07
2019-02-06T11:09:51.725Z,-3.32
2019-02-06T11:14:55.691Z,-3.29
2019-02-06T11:19:59.247Z,-3.11
2019-02-06T11:25:04.657Z,-3.24
2019-02-06T11:30:09.402Z,-2.87
2019-02-06T11:35:12.828Z,-2.75
2019-02-06T11:40:18.638Z,-2.71
2019-02-06T11:45:24.463Z,-3.05
2019-02-06T11:50:35.494Z,-3.08
2019-02-06T11:55:38.931Z,-3.01
2019-02-06T12:00:49.785Z,-2.98
2019-02-06T12:05:53.235Z,-2.98
2019-02-06T12:10:56.677Z,-2.86
2019-02-06T12:16:00.177Z,-2.79
2019-02-06T12:21:03.655Z,-2.70
2019-02-06T12:26:07.325Z,-2.75
2019-02-06T12:31:10.769Z,-2.97
2019-02-06T12:36:15.833Z,-2.62
2019-02-06T12:41:17.810Z,-2.74
2019-02-06T12:46:21.276Z,-2.79
2019-02-06T12:51:24.723Z,-2.59
2019-02-06T13:01:43.748Z,-2.50
2019-02-06T13:06:47.149Z,-2.90
2019-02-06T13:11:50.688Z,-2.65
2019-02-06T13:16:54.095Z,-2.70
2019-02-06T13:21:57.573Z,-2.70
2019-02-06T13:27:01.004Z,-2.68
2019-02-06T13:32:04.567Z,-2.65
2019-02-06T13:37:08.109Z,-2.64
2019-02-06T13:42:11.779Z,-2.74
2019-02-06T13:47:15.275Z,-2.82
2019-02-06T13:52:18.830Z,-2.89
2019-02-06T13:57:33.140Z,-2.68
2019-02-06T14:02:25.848Z,-2.89
2019-02-06T14:07:29.448Z,-2.93
2019-02-06T14:12:33.220Z,-2.78
2019-02-06T14:17:36.881Z,-2.79
2019-02-06T14:22:40.850Z,-2.92
2019-02-06T14:27:53.406Z,-2.78
2019-02-06T14:33:12.044Z,-2.93
2019-02-06T14:38:29.772Z,-2.93
2019-02-06T14:43:44.378Z,-2.77
2019-02-06T14:50:29.415Z,-2.76
2019-02-06T14:57:44.560Z,-2.76
2019-02-06T15:05:29.734Z,-2.88
2019-02-06T15:10:41.577Z,-2.93
2019-02-06T15:16:02.793Z,-2.92
2019-02-06T15:21:17.661Z,-2.86
2019-02-06T15:28:44.276Z,-3.01
2019-02-06T15:33:59.028Z,-2.93
2019-02-06T15:39:18.168Z,-2.77
2019-02-06T15:44:33.109Z,-2.84
2019-02-06T15:49:46.710Z,-2.84
2019-02-06T15:55:03.640Z,-2.93
2019-02-06T16:00:24.714Z,-2.95
2019-02-06T16:05:52.180Z,-2.92
2019-02-06T16:13:09.773Z,-3.00
2019-02-06T16:18:26.197Z,-3.02
2019-02-06T16:23:46.109Z,-2.97
2019-02-06T16:29:02.411Z,-3.11
2019-02-06T16:34:25.639Z,-3.15
2019-02-06T16:39:48.598Z,-3.09
2019-02-06T16:45:02.150Z,-3.06
2019-02-06T16:50:15.324Z,-3.15
2019-02-06T16:55:33.068Z,-3.24
2019-02-06T17:00:51.399Z,-3.32
2019-02-06T17:06:05.537Z,-3.36
2019-02-06T17:11:48.734Z,-3.32
2019-02-06T17:17:00.250Z,-3.26
2019-02-06T17:22:14.096Z,-3.16
2019-02-06T17:27:37.553Z,-3.23
2019-02-06T17:34:58.300Z,-3.26
2019-02-06T17:40:14.263Z,-3.36
2019-02-06T17:46:59.493Z,-3.34
2019-02-06T17:52:49.065Z,-3.39
2019-02-06T17:57:55.576Z,-3.36
2019-02-06T18:03:00.376Z,-3.42
2019-02-06T18:08:04.007Z,-3.51
2019-02-06T18:13:07.792Z,-3.46
2019-02-06T18:18:11.448Z,-3.54
2019-02-06T18:23:15.034Z,-3.42
2019-02-06T18:28:18.823Z,-3.59
2019-02-06T18:33:22.682Z,-3.62
2019-02-06T18:38:26.458Z,-3.81
2019-02-06T18:43:31.308Z,-3.67
2019-02-06T18:48:35.648Z,-3.68
2019-02-06T18:53:39.500Z,-3.69
2019-02-06T18:58:43.237Z,-3.61
2019-02-06T19:03:48.261Z,-3.77
2019-02-06T19:08:52.849Z,-3.75
2019-02-06T19:13:58.325Z,-3.74
2019-02-06T19:19:00.301Z,-3.82
2019-02-06T19:24:04.095Z,-3.77
2019-02-06T19:29:07.722Z,-3.73
2019-02-06T19:34:11.474Z,-3.72
2019-02-06T19:39:15.192Z,-3.70
2019-02-06T19:44:18.985Z,-3.70
2019-02-06T19:49:22.821Z,-3.68
2019-02-06T19:54:26.422Z,-3.78
2019-02-06T19:59:30.955Z,-3.79
2019-02-06T20:04:36.128Z,-3.64
2019-02-06T20:09:40.379Z,-3.67
2019-02-06T20:14:44.394Z,-3.66
2019-02-06T20:19:48.261Z,-3.78
2019-02-06T20:24:52.090Z,-3.66
2019-02-06T20:29:55.971Z,-3.81
2019-02-06T20:35:00.334Z,-3.78
2019-02-06T20:40:05.015Z,-3.66
2019-02-06T20:45:09.295Z,-3.55
2019-02-06T20:50:17.414Z,-3.50
2019-02-06T20:55:21.355Z,-3.47
2019-02-06T21:00:28.349Z,-3.52
2019-02-06T21:05:32.279Z,-3.43
2019-02-06T21:10:36.364Z,-3.43
2019-02-06T21:15:40.203Z,-3.40
2019-02-06T21:20:44.066Z,-3.53
2019-02-06T21:25:48.027Z,-3.56
2019-02-06T21:30:53.057Z,-3.66
2019-02-06T21:35:57.044Z,-3.60
2019-02-06T21:41:00.916Z,-3.57
2019-02-06T21:46:04.886Z,-3.64
2019-02-06T21:51:08.722Z,-3.53
2019-02-06T21:56:12.570Z,-3.54
2019-02-06T22:01:16.575Z,-3.85
2019-02-06T22:06:20.370Z,-3.78
2019-02-06T22:11:24.264Z,-3.79
2019-02-06T22:16:28.000Z,-3.82
2019-02-06T22:21:31.765Z,-3.92
2019-02-06T22:26:35.646Z,-3.85
2019-02-06T22:31:39.471Z,-4.13
2019-02-06T22:36:43.372Z,-4.09
2019-02-06T22:41:47.119Z,-3.95
2019-02-06T22:46:50.777Z,-4.19
2019-02-06T22:51:54.207Z,-4.10
2019-02-06T22:56:57.738Z,-4.28
2019-02-06T23:02:01.222Z,-4.42
2019-02-06T23:07:07.160Z,-4.52
2019-02-06T23:12:08.089Z,-4.51
2019-02-06T23:17:11.554Z,-4.63
2019-02-06T23:22:15.004Z,-4.58
2019-02-06T23:27:18.530Z,-4.56
2019-02-06T23:32:22.011Z,-4.46
2019-02-06T23:37:25.426Z,-4.29
2019-02-06T23:42:28.926Z,-4.30
2019-02-06T23:47:32.348Z,-4.29
2019-02-06T23:52:35.781Z,-4.52
2019-02-06T23:57:39.209Z,-4.33
